KLM601 EHAM-KLAX
Flight info
| Callsign | KLM601 |
|---|---|
| Flight time | N/A |
| Altitude | 36000 |
| Route | BERGI L602 SUPUR P1 GODOS DCT ROKAN DCT SUSIS DCT BONBY DCT BARKU DCT RATSU/M081F360 DCT 65N020W/M082F380 68N030W 70N040W 72N060W DCT INGUM/N0476F380 DCT 7130N07000W 70N080W 67N090W/N0482F400 DCT YBK DCT 6305N09900W DCT YSF DCT YEGGA DCT EDGES J517 GEG/N0475F410 DCT FMG DCT REBRG IRNMN2 |
| Aircraft | B772/H-SDE2E3FGHIJ5LORVWXY/LB1D1 |
Departure
| Time | 2026-04-29 00:01 |
|---|---|
| Airport | Amsterdam Airport Schiphol (EHAM) |
Arrival
| Time | N/A |
|---|---|
| Airport | Los Angeles International Airport (KLAX) |
| Time | Latitude | Longitude | Altitude | Speed | Heading |
|---|---|---|---|---|---|
| 2026-04-28 23:21 | 52.31119 | 4.76705 | 3 ft | 0 kts | 303° |
| 2026-04-28 23:40 | 52.31115 | 4.76715 | 3 ft | 4 kts | 303° |
| 2026-04-28 23:40 | 52.31100 | 4.76752 | 4 ft | 4 kts | 305° |
| 2026-04-28 23:40 | 52.31084 | 4.76787 | 5 ft | 4 kts | 303° |
| 2026-04-28 23:41 | 52.31071 | 4.76826 | 6 ft | 4 kts | 286° |
| 2026-04-28 23:41 | 52.31071 | 4.76859 | 6 ft | 2 kts | 231° |
| 2026-04-28 23:41 | 52.31083 | 4.76891 | 5 ft | 4 kts | 257° |
| 2026-04-28 23:41 | 52.31086 | 4.76927 | 6 ft | 4 kts | 270° |
| 2026-04-28 23:42 | 52.31085 | 4.76971 | 5 ft | 4 kts | 272° |
| 2026-04-28 23:42 | 52.31083 | 4.77015 | 4 ft | 4 kts | 275° |
| 2026-04-28 23:42 | 52.31081 | 4.77058 | 3 ft | 4 kts | 274° |
| 2026-04-28 23:42 | 52.31081 | 4.77068 | 3 ft | 0 kts | 273° |
| 2026-04-28 23:47 | 52.31082 | 4.77033 | 3 ft | 10 kts | 272° |
| 2026-04-28 23:47 | 52.31132 | 4.76945 | 3 ft | 12 kts | 358° |
| 2026-04-28 23:47 | 52.31209 | 4.77003 | 3 ft | 12 kts | 33° |
| 2026-04-28 23:48 | 52.31280 | 4.77080 | 3 ft | 12 kts | 34° |
| 2026-04-28 23:48 | 52.31350 | 4.77158 | 3 ft | 12 kts | 34° |
| 2026-04-28 23:48 | 52.31431 | 4.77192 | 3 ft | 12 kts | 6° |
| 2026-04-28 23:48 | 52.31516 | 4.77200 | 3 ft | 13 kts | 357° |
| 2026-04-28 23:49 | 52.31568 | 4.77092 | 3 ft | 15 kts | 271° |
| 2026-04-28 23:49 | 52.31560 | 4.76832 | 3 ft | 25 kts | 266° |
| 2026-04-28 23:49 | 52.31549 | 4.76544 | 3 ft | 25 kts | 266° |
| 2026-04-28 23:49 | 52.31540 | 4.76256 | 3 ft | 25 kts | 266° |
| 2026-04-28 23:50 | 52.31530 | 4.75967 | 4 ft | 25 kts | 266° |
| 2026-04-28 23:50 | 52.31519 | 4.75679 | 4 ft | 25 kts | 268° |
| 2026-04-28 23:50 | 52.31510 | 4.75394 | 3 ft | 25 kts | 267° |
| 2026-04-28 23:50 | 52.31500 | 4.75106 | 3 ft | 25 kts | 266° |
| 2026-04-28 23:51 | 52.31490 | 4.74818 | 5 ft | 25 kts | 266° |
| 2026-04-28 23:51 | 52.31481 | 4.74530 | 4 ft | 24 kts | 267° |
| 2026-04-28 23:51 | 52.31483 | 4.74343 | 3 ft | 13 kts | 294° |
| 2026-04-28 23:51 | 52.31566 | 4.74298 | 3 ft | 13 kts | 3° |
| 2026-04-28 23:52 | 52.31683 | 4.74311 | 3 ft | 20 kts | 4° |
| 2026-04-28 23:52 | 52.31831 | 4.74325 | 3 ft | 22 kts | 3° |
| 2026-04-28 23:52 | 52.31973 | 4.74336 | 3 ft | 17 kts | 358° |
| 2026-04-28 23:52 | 52.32029 | 4.74223 | 3 ft | 13 kts | 277° |
| 2026-04-28 23:53 | 52.32036 | 4.74072 | 3 ft | 15 kts | 273° |
| 2026-04-28 23:53 | 52.32044 | 4.73836 | 3 ft | 24 kts | 273° |
| 2026-04-28 23:53 | 52.32052 | 4.73588 | 3 ft | 19 kts | 273° |
| 2026-04-28 23:53 | 52.32071 | 4.73405 | 3 ft | 15 kts | 296° |
| 2026-04-28 23:54 | 52.32144 | 4.73278 | 3 ft | 15 kts | 319° |
| 2026-04-28 23:54 | 52.32239 | 4.73145 | 3 ft | 22 kts | 320° |
| 2026-04-28 23:54 | 52.32361 | 4.72973 | 3 ft | 24 kts | 319° |
| 2026-04-28 23:54 | 52.32486 | 4.72798 | 3 ft | 24 kts | 319° |
| 2026-04-28 23:55 | 52.32610 | 4.72621 | 3 ft | 24 kts | 319° |
| 2026-04-28 23:55 | 52.32728 | 4.72433 | 3 ft | 24 kts | 310° |
| 2026-04-28 23:55 | 52.32836 | 4.72231 | 3 ft | 24 kts | 311° |
| 2026-04-28 23:55 | 52.32944 | 4.72029 | 3 ft | 24 kts | 311° |
| 2026-04-28 23:56 | 52.33053 | 4.71827 | 3 ft | 24 kts | 311° |
| 2026-04-28 23:56 | 52.33147 | 4.71612 | 3 ft | 22 kts | 281° |
| 2026-04-28 23:56 | 52.33115 | 4.71478 | 3 ft | 10 kts | 226° |
| 2026-04-28 23:56 | 52.33036 | 4.71361 | 3 ft | 20 kts | 220° |
| 2026-04-28 23:57 | 52.32935 | 4.71218 | 3 ft | 16 kts | 221° |
| 2026-04-28 23:57 | 52.32877 | 4.71125 | 3 ft | 10 kts | 233° |
| 2026-04-28 23:57 | 52.32866 | 4.71087 | 3 ft | 0 kts | 254° |
| 2026-04-28 23:58 | 52.32866 | 4.71086 | 3 ft | 1 kts | 254° |
| 2026-04-28 23:58 | 52.32864 | 4.70976 | 2 ft | 11 kts | 276° |
| 2026-04-28 23:58 | 52.32885 | 4.70895 | 2 ft | 7 kts | 336° |
| 2026-04-28 23:58 | 52.32913 | 4.70894 | 2 ft | 0 kts | 5° |
| 2026-04-29 00:00 | 52.32982 | 4.70903 | 1 ft | 26 kts | 4° |
| 2026-04-29 00:00 | 52.33403 | 4.70945 | 2 ft | 95 kts | 3° |
| 2026-04-29 00:00 | 52.34275 | 4.71023 | 2 ft | 154 kts | 4° |
| 2026-04-29 00:00 | 52.35477 | 4.71094 | 294 ft | 176 kts | 6° |
| 2026-04-29 00:01 | 52.36628 | 4.71199 | 1174 ft | 169 kts | 13° |
| 2026-04-29 00:01 | 52.37832 | 4.71333 | 1812 ft | 179 kts | 14° |
| 2026-04-29 00:01 | 52.39165 | 4.71478 | 2091 ft | 202 kts | 13° |
| 2026-04-29 00:01 | 52.40644 | 4.71626 | 2350 ft | 223 kts | 12° |
| 2026-04-29 00:02 | 52.42259 | 4.71704 | 2591 ft | 245 kts | 359° |
| 2026-04-29 00:02 | 52.43900 | 4.70602 | 2981 ft | 268 kts | 326° |
| 2026-04-29 00:02 | 52.45289 | 4.68475 | 3384 ft | 279 kts | 319° |
| 2026-04-29 00:02 | 52.46655 | 4.66228 | 4141 ft | 277 kts | 318° |
| 2026-04-29 00:03 | 52.47981 | 4.63993 | 4848 ft | 278 kts | 318° |
| 2026-04-29 00:03 | 52.49352 | 4.61718 | 5436 ft | 283 kts | 319° |
| 2026-04-29 00:03 | 52.50760 | 4.59425 | 6079 ft | 286 kts | 319° |
| 2026-04-29 00:03 | 52.52188 | 4.57193 | 6728 ft | 282 kts | 326° |
| 2026-04-29 00:04 | 52.53841 | 4.55506 | 7250 ft | 278 kts | 336° |
| 2026-04-29 00:04 | 52.55547 | 4.53969 | 7827 ft | 280 kts | 334° |
| 2026-04-29 00:04 | 52.57258 | 4.52415 | 8406 ft | 282 kts | 335° |
| 2026-04-29 00:04 | 52.58980 | 4.50841 | 8976 ft | 284 kts | 335° |
| 2026-04-29 00:05 | 52.60708 | 4.49249 | 9532 ft | 286 kts | 335° |
| 2026-04-29 00:05 | 52.62429 | 4.47654 | 10061 ft | 289 kts | 334° |
| 2026-04-29 00:05 | 52.64180 | 4.46020 | 10531 ft | 292 kts | 333° |
| 2026-04-29 00:05 | 52.65995 | 4.44321 | 10687 ft | 308 kts | 334° |
| 2026-04-29 00:06 | 52.67906 | 4.42527 | 10826 ft | 325 kts | 333° |
| 2026-04-29 00:06 | 52.69905 | 4.40641 | 11110 ft | 337 kts | 334° |
| 2026-04-29 00:06 | 52.71965 | 4.38692 | 11611 ft | 344 kts | 333° |
| 2026-04-29 00:06 | 52.74029 | 4.36673 | 12264 ft | 344 kts | 328° |
| 2026-04-29 00:07 | 52.75701 | 4.33871 | 12787 ft | 356 kts | 303° |
| 2026-04-29 00:07 | 52.76863 | 4.30243 | 13306 ft | 360 kts | 300° |
| 2026-04-29 00:07 | 52.78062 | 4.26575 | 14030 ft | 365 kts | 301° |
| 2026-04-29 00:07 | 52.79302 | 4.22908 | 14772 ft | 367 kts | 303° |
| 2026-04-29 00:08 | 52.80558 | 4.19213 | 15418 ft | 371 kts | 302° |
| 2026-04-29 00:08 | 52.81825 | 4.15457 | 16076 ft | 376 kts | 302° |
| 2026-04-29 00:08 | 52.83103 | 4.11662 | 16718 ft | 380 kts | 302° |
| 2026-04-29 00:08 | 52.84395 | 4.07821 | 17366 ft | 384 kts | 302° |
| 2026-04-29 00:09 | 52.85681 | 4.03990 | 17978 ft | 389 kts | 302° |
| 2026-04-29 00:09 | 52.87007 | 4.00038 | 18484 ft | 396 kts | 303° |
| 2026-04-29 00:09 | 52.88349 | 3.96029 | 18996 ft | 401 kts | 303° |
| 2026-04-29 00:09 | 52.89702 | 3.91978 | 19554 ft | 403 kts | 303° |
| 2026-04-29 00:10 | 52.91064 | 3.87894 | 20076 ft | 407 kts | 303° |
| 2026-04-29 00:10 | 52.92438 | 3.83770 | 20582 ft | 411 kts | 303° |
| 2026-04-29 00:10 | 52.93821 | 3.79607 | 21057 ft | 415 kts | 303° |
| 2026-04-29 00:10 | 52.95222 | 3.75390 | 21531 ft | 419 kts | 303° |
| 2026-04-29 00:11 | 52.96612 | 3.71196 | 22014 ft | 422 kts | 303° |
| 2026-04-29 00:11 | 52.98032 | 3.66905 | 22475 ft | 426 kts | 303° |
| 2026-04-29 00:11 | 53.01181 | 3.58583 | 23226 ft | 424 kts | 320° |
| 2026-04-29 00:12 | 53.03468 | 3.55566 | 23642 ft | 417 kts | 335° |
| 2026-04-29 00:12 | 53.06064 | 3.53559 | 24091 ft | 408 kts | 347° |
| 2026-04-29 00:12 | 53.08772 | 3.52091 | 24456 ft | 411 kts | 348° |
| 2026-04-29 00:12 | 53.11499 | 3.50613 | 24872 ft | 414 kts | 348° |
| 2026-04-29 00:13 | 53.14240 | 3.49096 | 25320 ft | 416 kts | 347° |
| 2026-04-29 00:13 | 53.16948 | 3.47568 | 25750 ft | 418 kts | 347° |
| 2026-04-29 00:13 | 53.19707 | 3.45992 | 26166 ft | 420 kts | 347° |
| 2026-04-29 00:13 | 53.22479 | 3.44399 | 26600 ft | 422 kts | 347° |
| 2026-04-29 00:14 | 53.25259 | 3.42799 | 27034 ft | 424 kts | 347° |
| 2026-04-29 00:14 | 53.28061 | 3.41184 | 27442 ft | 427 kts | 347° |
| 2026-04-29 00:14 | 53.30871 | 3.39563 | 27856 ft | 429 kts | 347° |
| 2026-04-29 00:14 | 53.33698 | 3.37929 | 28293 ft | 431 kts | 347° |
| 2026-04-29 00:15 | 53.36537 | 3.36284 | 28717 ft | 433 kts | 347° |
| 2026-04-29 00:15 | 53.39352 | 3.34652 | 29114 ft | 435 kts | 347° |
| 2026-04-29 00:15 | 53.42223 | 3.32985 | 29506 ft | 438 kts | 348° |
| 2026-04-29 00:15 | 53.45108 | 3.31307 | 29887 ft | 440 kts | 348° |
| 2026-04-29 00:16 | 53.48012 | 3.29616 | 30255 ft | 443 kts | 348° |
| 2026-04-29 00:16 | 53.50926 | 3.27915 | 30618 ft | 445 kts | 348° |
| 2026-04-29 00:16 | 53.53863 | 3.26198 | 30925 ft | 447 kts | 347° |
| 2026-04-29 00:16 | 53.56807 | 3.24475 | 31249 ft | 449 kts | 347° |
| 2026-04-29 00:17 | 53.59766 | 3.22741 | 31551 ft | 451 kts | 347° |
| 2026-04-29 00:17 | 53.62691 | 3.20969 | 31856 ft | 456 kts | 344° |
| 2026-04-29 00:17 | 53.65556 | 3.18556 | 32129 ft | 466 kts | 335° |
| 2026-04-29 00:17 | 53.68254 | 3.15450 | 32402 ft | 474 kts | 328° |
| 2026-04-29 00:18 | 53.70736 | 3.11718 | 32641 ft | 482 kts | 321° |
| 2026-04-29 00:18 | 53.73099 | 3.07678 | 32830 ft | 486 kts | 320° |
| 2026-04-29 00:18 | 53.75456 | 3.03577 | 33112 ft | 487 kts | 320° |
| 2026-04-29 00:18 | 53.77811 | 2.99464 | 33430 ft | 486 kts | 320° |
| 2026-04-29 00:19 | 53.80166 | 2.95365 | 33830 ft | 485 kts | 320° |
| 2026-04-29 00:19 | 53.82486 | 2.91344 | 34232 ft | 483 kts | 320° |
| 2026-04-29 00:19 | 53.84832 | 2.87293 | 34564 ft | 481 kts | 320° |
| 2026-04-29 00:19 | 53.87183 | 2.83246 | 34854 ft | 481 kts | 320° |
| 2026-04-29 00:20 | 53.89530 | 2.79208 | 35118 ft | 481 kts | 320° |
| 2026-04-29 00:20 | 53.91875 | 2.75172 | 35407 ft | 480 kts | 320° |
| 2026-04-29 00:20 | 53.94215 | 2.71136 | 35692 ft | 479 kts | 320° |
| 2026-04-29 00:20 | 53.96550 | 2.67101 | 35966 ft | 479 kts | 320° |
| 2026-04-29 00:21 | 53.98847 | 2.63120 | 36248 ft | 477 kts | 320° |
| 2026-04-29 00:21 | 54.01659 | 2.58244 | 36365 ft | 481 kts | 320° |
| 2026-04-29 00:21 | 54.05170 | 2.52145 | 36449 ft | 486 kts | 320° |
| 2026-04-29 00:22 | 54.14658 | 2.35557 | 36458 ft | 488 kts | 320° |
| 2026-04-29 00:22 | 54.23938 | 2.19201 | 36451 ft | 472 kts | 320° |
| 2026-04-29 00:23 | 54.33029 | 2.03103 | 36453 ft | 469 kts | 320° |
| 2026-04-29 00:23 | 54.42070 | 1.86984 | 36481 ft | 476 kts | 320° |
| 2026-04-29 00:24 | 54.51303 | 1.70396 | 36492 ft | 483 kts | 320° |
| 2026-04-29 00:24 | 54.60491 | 1.53757 | 36465 ft | 473 kts | 320° |
| 2026-04-29 00:25 | 54.69517 | 1.37318 | 36479 ft | 470 kts | 319° |
| 2026-04-29 00:25 | 54.78414 | 1.21001 | 36496 ft | 468 kts | 319° |
| 2026-04-29 00:26 | 54.86241 | 1.06552 | 36488 ft | 467 kts | 319° |
| 2026-04-29 00:26 | 54.95200 | 0.89914 | 36501 ft | 477 kts | 319° |
| 2026-04-29 00:27 | 55.04288 | 0.72900 | 36488 ft | 480 kts | 319° |
| 2026-04-29 00:27 | 55.13273 | 0.55949 | 36489 ft | 470 kts | 319° |
| 2026-04-29 00:28 | 55.22041 | 0.39312 | 36536 ft | 467 kts | 318° |
| 2026-04-29 00:28 | 55.30395 | 0.23357 | 36501 ft | 475 kts | 318° |
| 2026-04-29 00:29 | 55.38979 | 0.06833 | 36517 ft | 476 kts | 317° |
| 2026-04-29 00:29 | 55.47895 | -0.10448 | 36505 ft | 478 kts | 317° |
| 2026-04-29 00:30 | 55.56749 | -0.27734 | 36509 ft | 477 kts | 317° |
| 2026-04-29 00:30 | 55.66079 | -0.44212 | 36516 ft | 471 kts | 323° |
| 2026-04-29 00:31 | 55.75811 | -0.59715 | 36517 ft | 470 kts | 323° |
| 2026-04-29 00:31 | 55.85460 | -0.75356 | 36502 ft | 468 kts | 322° |
| 2026-04-29 00:32 | 55.95036 | -0.91006 | 36518 ft | 466 kts | 322° |
| 2026-04-29 00:32 | 56.04492 | -1.06563 | 36517 ft | 465 kts | 322° |
| 2026-04-29 00:33 | 56.13975 | -1.22273 | 36513 ft | 464 kts | 322° |
| 2026-04-29 00:33 | 56.23415 | -1.38021 | 36524 ft | 463 kts | 321° |
| 2026-04-29 00:34 | 56.32849 | -1.53872 | 36529 ft | 464 kts | 321° |
| 2026-04-29 00:34 | 56.42190 | -1.69679 | 36524 ft | 464 kts | 321° |
| 2026-04-29 00:35 | 56.51595 | -1.85707 | 36530 ft | 464 kts | 320° |
| 2026-04-29 00:35 | 56.60978 | -2.01811 | 36531 ft | 464 kts | 320° |
| 2026-04-29 00:36 | 56.70340 | -2.17998 | 36514 ft | 464 kts | 320° |
| 2026-04-29 00:36 | 56.79611 | -2.34142 | 36504 ft | 464 kts | 319° |
| 2026-04-29 00:37 | 56.88908 | -2.50447 | 36499 ft | 463 kts | 319° |
| 2026-04-29 00:37 | 56.98170 | -2.66812 | 36504 ft | 462 kts | 319° |
| 2026-04-29 00:38 | 57.07411 | -2.83258 | 36503 ft | 462 kts | 319° |
| 2026-04-29 00:38 | 57.16545 | -2.99633 | 36474 ft | 461 kts | 317° |
| 2026-04-29 00:39 | 57.25707 | -3.16179 | 36474 ft | 460 kts | 317° |
| 2026-04-29 00:39 | 57.34835 | -3.32782 | 36467 ft | 460 kts | 317° |
| 2026-04-29 00:40 | 57.43927 | -3.49445 | 36416 ft | 460 kts | 317° |
| 2026-04-29 00:40 | 57.50701 | -3.61940 | 36434 ft | 459 kts | 316° |
| 2026-04-29 00:41 | 57.58594 | -3.76586 | 36454 ft | 459 kts | 316° |
| 2026-04-29 00:41 | 57.66272 | -3.90926 | 36453 ft | 459 kts | 316° |
| 2026-04-29 00:42 | 57.74739 | -4.06844 | 36472 ft | 458 kts | 316° |
| 2026-04-29 00:42 | 57.83716 | -4.23847 | 36475 ft | 459 kts | 315° |
| 2026-04-29 00:43 | 57.92791 | -4.40470 | 36463 ft | 459 kts | 318° |
| 2026-04-29 00:43 | 58.02368 | -4.56373 | 36481 ft | 459 kts | 319° |
| 2026-04-29 00:44 | 58.11903 | -4.72441 | 36483 ft | 459 kts | 318° |
| 2026-04-29 00:44 | 58.21403 | -4.88616 | 36473 ft | 459 kts | 317° |
| 2026-04-29 00:45 | 58.30817 | -5.04760 | 36471 ft | 459 kts | 317° |
| 2026-04-29 00:45 | 58.40283 | -5.21116 | 36476 ft | 459 kts | 316° |
| 2026-04-29 00:46 | 58.49712 | -5.37531 | 36474 ft | 458 kts | 316° |
| 2026-04-29 00:46 | 58.59103 | -5.54004 | 36473 ft | 458 kts | 316° |
| 2026-04-29 00:47 | 58.68403 | -5.70438 | 36474 ft | 457 kts | 316° |
| 2026-04-29 00:47 | 58.77737 | -5.87067 | 36469 ft | 457 kts | 316° |
| 2026-04-29 00:48 | 58.87037 | -6.03759 | 36469 ft | 457 kts | 315° |
| 2026-04-29 00:48 | 58.96328 | -6.20562 | 36468 ft | 457 kts | 315° |
| 2026-04-29 00:49 | 59.05587 | -6.37439 | 36469 ft | 457 kts | 315° |
| 2026-04-29 00:49 | 59.14765 | -6.54298 | 36463 ft | 457 kts | 314° |
| 2026-04-29 00:50 | 59.23996 | -6.71387 | 36461 ft | 457 kts | 314° |
| 2026-04-29 00:50 | 59.33209 | -6.88577 | 36459 ft | 458 kts | 314° |
| 2026-04-29 00:51 | 59.42399 | -7.05861 | 36466 ft | 458 kts | 314° |
| 2026-04-29 00:51 | 59.51512 | -7.23135 | 36460 ft | 458 kts | 314° |
| 2026-04-29 00:52 | 59.60679 | -7.40650 | 36445 ft | 459 kts | 314° |
| 2026-04-29 00:52 | 59.69821 | -7.58257 | 36450 ft | 459 kts | 314° |
| 2026-04-29 00:53 | 59.78943 | -7.75967 | 36442 ft | 459 kts | 314° |
| 2026-04-29 00:53 | 59.87980 | -7.93657 | 36433 ft | 459 kts | 313° |
| 2026-04-29 00:54 | 59.97053 | -8.11558 | 36483 ft | 458 kts | 313° |
| 2026-04-29 00:54 | 60.06109 | -8.29576 | 36431 ft | 459 kts | 313° |
| 2026-04-29 00:55 | 60.15135 | -8.47679 | 36409 ft | 459 kts | 313° |
| 2026-04-29 00:55 | 60.24142 | -8.65895 | 36387 ft | 460 kts | 312° |
| 2026-04-29 00:56 | 60.33076 | -8.84115 | 36397 ft | 459 kts | 312° |
| 2026-04-29 00:56 | 60.42035 | -9.02536 | 36390 ft | 459 kts | 311° |
| 2026-04-29 00:57 | 60.50968 | -9.21058 | 36392 ft | 459 kts | 311° |
| 2026-04-29 00:57 | 60.59906 | -9.39653 | 36372 ft | 460 kts | 313° |
| 2026-04-29 00:58 | 60.67771 | -9.51888 | 36366 ft | 464 kts | 321° |
| 2026-04-29 00:58 | 60.76897 | -9.65259 | 36325 ft | 465 kts | 320° |
| 2026-04-29 00:59 | 60.86810 | -9.80089 | 36354 ft | 465 kts | 319° |
| 2026-04-29 00:59 | 60.97251 | -9.95827 | 36365 ft | 465 kts | 319° |
| 2026-04-29 01:00 | 61.05131 | -10.10083 | 36336 ft | 460 kts | 310° |
| 2026-04-29 01:00 | 61.14203 | -10.28694 | 36319 ft | 460 kts | 310° |
| 2026-04-29 01:01 | 61.23320 | -10.47352 | 36310 ft | 460 kts | 310° |
| 2026-04-29 01:01 | 61.32430 | -10.66128 | 36302 ft | 461 kts | 309° |
| 2026-04-29 01:02 | 61.39985 | -10.81825 | 36296 ft | 461 kts | 309° |
| 2026-04-29 01:02 | 61.50514 | -11.03895 | 36300 ft | 462 kts | 309° |
| 2026-04-29 01:03 | 61.59547 | -11.23010 | 36281 ft | 461 kts | 308° |
| 2026-04-29 01:03 | 61.68537 | -11.42200 | 36279 ft | 460 kts | 308° |
| 2026-04-29 01:04 | 61.75972 | -11.58201 | 36292 ft | 459 kts | 307° |
| 2026-04-29 01:04 | 61.85208 | -11.78243 | 36248 ft | 459 kts | 307° |
| 2026-04-29 01:05 | 61.94087 | -11.97683 | 36227 ft | 458 kts | 307° |
| 2026-04-29 01:05 | 62.01435 | -12.13903 | 36247 ft | 458 kts | 306° |
| 2026-04-29 01:06 | 62.10003 | -12.32974 | 36138 ft | 459 kts | 306° |
| 2026-04-29 01:06 | 62.18205 | -12.51377 | 36220 ft | 457 kts | 305° |
| 2026-04-29 01:07 | 62.26946 | -12.71170 | 36233 ft | 457 kts | 304° |
| 2026-04-29 01:07 | 62.34546 | -12.88521 | 36211 ft | 457 kts | 304° |
| 2026-04-29 01:08 | 62.42467 | -13.06759 | 36176 ft | 457 kts | 304° |
| 2026-04-29 01:08 | 62.51129 | -13.26869 | 36193 ft | 457 kts | 303° |
| 2026-04-29 01:09 | 62.59764 | -13.47109 | 36145 ft | 458 kts | 303° |
| 2026-04-29 01:09 | 62.68381 | -13.67485 | 36139 ft | 457 kts | 303° |
| 2026-04-29 01:10 | 62.76885 | -13.87784 | 36161 ft | 457 kts | 302° |
| 2026-04-29 01:10 | 62.85437 | -14.08391 | 36114 ft | 457 kts | 302° |
| 2026-04-29 01:11 | 62.93943 | -14.29074 | 36098 ft | 457 kts | 302° |
| 2026-04-29 01:11 | 63.02426 | -14.49901 | 36129 ft | 458 kts | 301° |
| 2026-04-29 01:12 | 63.09981 | -14.68607 | 36116 ft | 457 kts | 301° |
| 2026-04-29 01:12 | 63.18401 | -14.89652 | 36076 ft | 456 kts | 301° |
| 2026-04-29 01:13 | 63.26766 | -15.10757 | 36130 ft | 455 kts | 300° |
| 2026-04-29 01:13 | 63.34248 | -15.29809 | 36057 ft | 454 kts | 300° |
| 2026-04-29 01:14 | 63.42466 | -15.50919 | 36092 ft | 453 kts | 300° |
| 2026-04-29 01:14 | 63.49744 | -15.69787 | 36094 ft | 451 kts | 300° |
| 2026-04-29 01:15 | 63.56686 | -15.87935 | 36061 ft | 451 kts | 299° |
| 2026-04-29 01:15 | 63.64802 | -16.09338 | 36050 ft | 449 kts | 299° |
| 2026-04-29 01:16 | 63.72864 | -16.30810 | 36037 ft | 447 kts | 298° |
| 2026-04-29 01:16 | 63.80803 | -16.52156 | 36039 ft | 446 kts | 298° |
| 2026-04-29 01:17 | 63.88742 | -16.73714 | 36041 ft | 445 kts | 298° |
| 2026-04-29 01:17 | 63.96650 | -16.95395 | 36045 ft | 445 kts | 298° |
| 2026-04-29 01:18 | 64.03732 | -17.14991 | 36051 ft | 447 kts | 298° |
| 2026-04-29 01:18 | 64.15486 | -17.47897 | 36046 ft | 448 kts | 298° |
| 2026-04-29 01:19 | 64.23177 | -17.69697 | 36142 ft | 449 kts | 297° |
| 2026-04-29 01:19 | 64.28942 | -17.86193 | 36021 ft | 455 kts | 297° |
| 2026-04-29 01:20 | 64.36892 | -18.09116 | 35997 ft | 459 kts | 297° |
| 2026-04-29 01:20 | 64.44835 | -18.32251 | 36002 ft | 460 kts | 297° |
| 2026-04-29 01:21 | 64.52721 | -18.55473 | 35987 ft | 462 kts | 298° |
| 2026-04-29 01:21 | 64.60638 | -18.79029 | 35977 ft | 462 kts | 298° |
| 2026-04-29 01:22 | 64.66887 | -18.97806 | 35978 ft | 464 kts | 297° |
| 2026-04-29 01:22 | 64.70838 | -19.09765 | 36296 ft | 468 kts | 298° |
| 2026-04-29 01:22 | 64.73786 | -19.18721 | 36594 ft | 470 kts | 298° |
| 2026-04-29 01:23 | 64.75750 | -19.24706 | 36849 ft | 469 kts | 299° |
| 2026-04-29 01:23 | 64.77736 | -19.30771 | 37106 ft | 469 kts | 299° |
| 2026-04-29 01:23 | 64.79719 | -19.36848 | 37319 ft | 469 kts | 299° |
| 2026-04-29 01:23 | 64.81700 | -19.42940 | 37523 ft | 470 kts | 299° |
| 2026-04-29 01:24 | 64.83681 | -19.49048 | 37718 ft | 470 kts | 299° |
| 2026-04-29 01:24 | 64.85773 | -19.55514 | 37845 ft | 472 kts | 299° |
| 2026-04-29 01:24 | 64.92429 | -19.76217 | 37901 ft | 477 kts | 299° |
| 2026-04-29 01:25 | 64.99296 | -19.97761 | 37921 ft | 474 kts | 300° |
| 2026-04-29 01:25 | 65.07937 | -20.21523 | 37906 ft | 476 kts | 304° |
| 2026-04-29 01:26 | 65.16690 | -20.45121 | 37879 ft | 475 kts | 303° |
| 2026-04-29 01:26 | 65.23288 | -20.63244 | 37925 ft | 482 kts | 303° |
| 2026-04-29 01:27 | 65.28778 | -20.78453 | 37843 ft | 492 kts | 303° |
| 2026-04-29 01:27 | 65.37499 | -21.02769 | 37820 ft | 492 kts | 303° |
| 2026-04-29 01:28 | 65.46255 | -21.27439 | 37838 ft | 479 kts | 303° |
| 2026-04-29 01:28 | 65.52070 | -21.44023 | 37838 ft | 481 kts | 303° |
| 2026-04-29 01:29 | 65.58993 | -21.63949 | 37841 ft | 493 kts | 304° |
| 2026-04-29 01:29 | 65.67860 | -21.89669 | 37799 ft | 498 kts | 303° |
| 2026-04-29 01:30 | 65.75965 | -22.13421 | 37788 ft | 483 kts | 303° |
| 2026-04-29 01:30 | 65.82663 | -22.33297 | 37741 ft | 484 kts | 303° |
| 2026-04-29 01:31 | 65.89913 | -22.55008 | 37843 ft | 484 kts | 303° |
| 2026-04-29 01:31 | 65.95977 | -22.73349 | 37750 ft | 497 kts | 302° |
| 2026-04-29 01:32 | 66.03747 | -22.97034 | 37717 ft | 502 kts | 303° |
| 2026-04-29 01:32 | 66.12391 | -23.23655 | 37697 ft | 489 kts | 302° |
| 2026-04-29 01:33 | 66.20798 | -23.49909 | 37688 ft | 485 kts | 302° |
| 2026-04-29 01:33 | 66.29050 | -23.75990 | 37683 ft | 484 kts | 302° |
| 2026-04-29 01:34 | 66.37396 | -24.02693 | 37706 ft | 494 kts | 301° |
| 2026-04-29 01:34 | 66.43951 | -24.23884 | 37634 ft | 502 kts | 301° |
| 2026-04-29 01:35 | 66.51714 | -24.49201 | 37679 ft | 489 kts | 301° |
| 2026-04-29 01:35 | 66.58980 | -24.73209 | 37677 ft | 483 kts | 301° |
| 2026-04-29 01:36 | 66.66606 | -24.98696 | 37621 ft | 482 kts | 300° |
| 2026-04-29 01:36 | 66.74238 | -25.24514 | 37590 ft | 492 kts | 300° |
| 2026-04-29 01:37 | 66.82452 | -25.52613 | 37617 ft | 499 kts | 300° |
| 2026-04-29 01:37 | 66.89175 | -25.75847 | 37559 ft | 488 kts | 300° |
| 2026-04-29 01:38 | 66.97078 | -26.03531 | 37548 ft | 484 kts | 300° |
| 2026-04-29 01:38 | 67.04924 | -26.31367 | 37594 ft | 483 kts | 300° |
| 2026-04-29 01:39 | 67.12815 | -26.59732 | 37531 ft | 495 kts | 300° |
| 2026-04-29 01:39 | 67.20825 | -26.88874 | 37520 ft | 500 kts | 300° |
| 2026-04-29 01:40 | 67.28734 | -27.18017 | 37515 ft | 496 kts | 299° |
| 2026-04-29 01:40 | 67.35733 | -27.44146 | 37405 ft | 488 kts | 299° |
| 2026-04-29 01:41 | 67.43321 | -27.72850 | 37522 ft | 484 kts | 299° |
| 2026-04-29 01:41 | 67.50112 | -27.98878 | 37481 ft | 494 kts | 299° |
| 2026-04-29 01:42 | 67.56738 | -28.24543 | 37480 ft | 498 kts | 299° |
| 2026-04-29 01:42 | 67.64440 | -28.54752 | 37459 ft | 496 kts | 298° |
| 2026-04-29 01:43 | 67.71979 | -28.84734 | 37476 ft | 487 kts | 298° |
| 2026-04-29 01:43 | 67.79365 | -29.14535 | 37469 ft | 482 kts | 298° |
| 2026-04-29 01:44 | 67.86699 | -29.44540 | 37479 ft | 490 kts | 298° |
| 2026-04-29 01:44 | 67.93418 | -29.72380 | 37399 ft | 496 kts | 298° |
| 2026-04-29 01:45 | 67.99886 | -29.99501 | 37448 ft | 496 kts | 298° |
| 2026-04-29 01:45 | 68.07504 | -30.30311 | 37434 ft | 497 kts | 299° |
| 2026-04-29 01:46 | 68.14128 | -30.57121 | 37474 ft | 497 kts | 299° |
| 2026-04-29 01:46 | 68.20266 | -30.82422 | 37418 ft | 496 kts | 299° |
| 2026-04-29 01:47 | 68.26621 | -31.08929 | 37429 ft | 494 kts | 298° |
| 2026-04-29 01:47 | 68.32024 | -31.31723 | 37444 ft | 492 kts | 298° |
| 2026-04-29 01:48 | 68.37973 | -31.57106 | 37502 ft | 489 kts | 298° |
| 2026-04-29 01:48 | 68.44774 | -31.86493 | 37450 ft | 489 kts | 298° |
| 2026-04-29 01:49 | 68.51952 | -32.17939 | 37477 ft | 489 kts | 298° |
| 2026-04-29 01:49 | 68.58187 | -32.45633 | 37476 ft | 489 kts | 297° |
| 2026-04-29 01:50 | 68.65254 | -32.77470 | 37463 ft | 489 kts | 297° |
| 2026-04-29 01:50 | 68.72281 | -33.09587 | 37475 ft | 490 kts | 297° |
| 2026-04-29 01:51 | 68.79207 | -33.41725 | 37477 ft | 490 kts | 297° |
| 2026-04-29 01:51 | 68.85389 | -33.70822 | 37519 ft | 488 kts | 297° |
| 2026-04-29 01:52 | 68.89170 | -33.88814 | 37547 ft | 487 kts | 297° |
| 2026-04-29 01:52 | 68.93721 | -34.10682 | 37557 ft | 488 kts | 297° |
| 2026-04-29 01:53 | 68.98554 | -34.34146 | 37561 ft | 488 kts | 296° |
| 2026-04-29 01:53 | 69.05260 | -34.67149 | 37482 ft | 490 kts | 296° |
| 2026-04-29 01:54 | 69.10634 | -34.93964 | 37523 ft | 489 kts | 296° |
| 2026-04-29 01:54 | 69.13941 | -35.10643 | 37543 ft | 489 kts | 296° |
| 2026-04-29 01:55 | 69.17208 | -35.27248 | 37535 ft | 489 kts | 296° |
| 2026-04-29 01:55 | 69.20481 | -35.44007 | 37548 ft | 489 kts | 296° |
| 2026-04-29 01:56 | 69.23731 | -35.60791 | 37539 ft | 488 kts | 296° |
| 2026-04-29 01:56 | 69.26962 | -35.77617 | 37539 ft | 487 kts | 296° |
| 2026-04-29 01:57 | 69.30152 | -35.94356 | 37560 ft | 487 kts | 296° |
| 2026-04-29 01:57 | 69.33342 | -36.11233 | 37556 ft | 486 kts | 296° |
| 2026-04-29 01:58 | 69.36514 | -36.28149 | 37568 ft | 486 kts | 295° |
| 2026-04-29 01:58 | 69.39665 | -36.45088 | 37568 ft | 485 kts | 295° |
| 2026-04-29 01:59 | 69.42795 | -36.62061 | 37582 ft | 485 kts | 295° |
| 2026-04-29 01:59 | 69.45887 | -36.78960 | 37604 ft | 485 kts | 295° |
| 2026-04-29 02:00 | 69.48982 | -36.96016 | 37609 ft | 485 kts | 295° |
| 2026-04-29 02:00 | 69.52062 | -37.13130 | 37626 ft | 485 kts | 295° |
| 2026-04-29 02:01 | 69.55125 | -37.30293 | 37624 ft | 485 kts | 295° |
| 2026-04-29 02:01 | 69.58151 | -37.47391 | 37643 ft | 485 kts | 295° |
| 2026-04-29 02:02 | 69.61179 | -37.64640 | 37674 ft | 484 kts | 294° |
| 2026-04-29 02:02 | 69.64185 | -37.81901 | 37704 ft | 483 kts | 295° |
| 2026-04-29 02:03 | 69.67165 | -37.99173 | 37688 ft | 482 kts | 294° |
| 2026-04-29 02:03 | 69.70097 | -38.16319 | 37686 ft | 480 kts | 294° |
| 2026-04-29 02:04 | 69.73028 | -38.33594 | 37710 ft | 479 kts | 294° |
| 2026-04-29 02:04 | 69.75933 | -38.50867 | 37741 ft | 478 kts | 294° |
| 2026-04-29 02:05 | 69.78821 | -38.68191 | 37770 ft | 478 kts | 294° |
| 2026-04-29 02:05 | 69.81673 | -38.85438 | 37779 ft | 479 kts | 294° |
| 2026-04-29 02:06 | 69.84532 | -39.02885 | 37792 ft | 479 kts | 293° |
| 2026-04-29 02:06 | 69.87374 | -39.20367 | 37787 ft | 479 kts | 292° |
| 2026-04-29 02:07 | 69.90193 | -39.37875 | 37807 ft | 478 kts | 293° |
| 2026-04-29 02:07 | 69.92971 | -39.55296 | 37832 ft | 477 kts | 292° |
| 2026-04-29 02:08 | 69.95746 | -39.72814 | 37824 ft | 476 kts | 292° |
| 2026-04-29 02:08 | 69.98502 | -39.90365 | 37844 ft | 476 kts | 293° |
| 2026-04-29 02:09 | 70.01269 | -40.07925 | 37843 ft | 476 kts | 294° |
| 2026-04-29 02:09 | 70.04192 | -40.25307 | 37846 ft | 476 kts | 295° |
| 2026-04-29 02:10 | 70.07121 | -40.42565 | 37874 ft | 476 kts | 295° |
| 2026-04-29 02:10 | 70.10027 | -40.59995 | 37875 ft | 475 kts | 294° |
| 2026-04-29 02:11 | 70.12894 | -40.77473 | 37888 ft | 474 kts | 293° |
| 2026-04-29 02:11 | 70.15737 | -40.94978 | 37888 ft | 473 kts | 293° |
| 2026-04-29 02:12 | 70.18533 | -41.12349 | 37890 ft | 472 kts | 293° |
| 2026-04-29 02:12 | 70.21331 | -41.29872 | 37912 ft | 472 kts | 294° |
| 2026-04-29 02:13 | 70.24080 | -41.47216 | 38017 ft | 469 kts | 293° |
| 2026-04-29 02:13 | 70.26836 | -41.64794 | 37930 ft | 475 kts | 294° |
| 2026-04-29 02:14 | 70.29621 | -41.82728 | 37937 ft | 482 kts | 293° |
| 2026-04-29 02:14 | 70.32383 | -42.00629 | 37935 ft | 480 kts | 293° |
| 2026-04-29 02:15 | 70.35133 | -42.18657 | 37931 ft | 478 kts | 292° |
| 2026-04-29 02:15 | 70.37852 | -42.36625 | 37955 ft | 475 kts | 292° |
| 2026-04-29 02:16 | 70.40533 | -42.54504 | 37952 ft | 471 kts | 293° |